Time;durP1;ratioP1;P1;durP2;ratioP2;P2;SDS_P1;SDS_P2;PMS_P1;PMS_P2;Temp;Humidity;BMP_temperature;BMP_pressure;BME280_temperature;BME280_humidity;BME280_pressure;Samples;Min_cycle;Max_cycle;Signal;HPM_P1;HPM_P2
2020/12/18 00:00:53;;;;;;;23.03;12.73;;;;;;;3.22;100.00;99128.41;3738998;77;44048;-67
2020/12/18 00:05:59;;;;;;;24.00;12.83;;;;;;;3.13;100.00;99121.86;3775139;78;44093;-67
2020/12/18 00:11:05;;;;;;;22.07;11.97;;;;;;;3.07;100.00;99125.76;3809739;77;44083;-67
2020/12/18 00:16:12;;;;;;;20.10;11.93;;;;;;;3.04;100.00;99124.61;3771066;77;43745;-67
2020/12/18 00:21:22;;;;;;;20.53;12.13;;;;;;;3.01;100.00;99123.47;3813182;77;43715;-67
2020/12/18 00:26:34;;;;;;;20.73;11.83;;;;;;;3.00;100.00;99124.91;3695923;78;43682;-67
2020/12/18 00:31:40;;;;;;;21.17;12.30;;;;;;;2.88;100.00;99131.37;3780092;77;44052;-67
2020/12/18 00:36:51;;;;;;;19.10;12.20;;;;;;;2.94;100.00;99123.48;3740988;79;44707;-66
2020/12/18 00:41:57;;;;;;;20.57;11.73;;;;;;;2.99;100.00;99128.52;3723478;78;43461;-67
2020/12/18 00:47:03;;;;;;;20.43;11.63;;;;;;;2.90;100.00;99134.80;3729291;78;44010;-67
2020/12/18 00:52:09;;;;;;;20.43;12.23;;;;;;;2.84;100.00;99143.63;3705780;80;44055;-67
2020/12/18 00:57:15;;;;;;;24.73;13.33;;;;;;;2.80;100.00;99140.31;3708744;78;43536;-67
2020/12/18 01:02:21;;;;;;;21.20;13.33;;;;;;;2.80;100.00;99143.42;3665324;80;43338;-66
2020/12/18 01:07:28;;;;;;;21.70;12.57;;;;;;;2.73;100.00;99135.84;3707442;78;43709;-67
2020/12/18 01:12:34;;;;;;;20.03;12.17;;;;;;;2.63;100.00;99137.35;3762476;79;43639;-67
2020/12/18 01:17:40;;;;;;;19.40;11.23;;;;;;;2.53;100.00;99133.54;3692262;78;43673;-67
2020/12/18 01:22:45;;;;;;;23.27;12.93;;;;;;;2.46;100.00;99135.22;3751750;79;43829;-67
2020/12/18 01:27:52;;;;;;;21.37;12.43;;;;;;;2.66;100.00;99142.46;3721067;78;44040;-67
2020/12/18 01:32:58;;;;;;;23.47;12.87;;;;;;;2.39;100.00;99139.66;3768299;78;43714;-67
2020/12/18 01:38:04;;;;;;;23.17;12.97;;;;;;;2.61;100.00;99140.08;3713746;79;44436;-67
2020/12/18 01:43:11;;;;;;;26.20;13.00;;;;;;;2.51;100.00;99138.09;3735862;79;43572;-67
2020/12/18 01:48:19;;;;;;;24.20;13.83;;;;;;;2.50;100.00;99145.69;3723194;79;26793;-67
2020/12/18 01:53:30;;;;;;;24.10;12.90;;;;;;;2.47;100.00;99142.72;3678036;79;26281;-67
2020/12/18 01:58:42;;;;;;;25.43;13.70;;;;;;;2.50;100.00;99149.19;3670043;79;26405;-67
2020/12/18 02:03:49;;;;;;;23.93;13.37;;;;;;;2.55;100.00;99150.23;3724209;79;26352;-67
2020/12/18 02:08:57;;;;;;;25.30;13.73;;;;;;;2.54;100.00;99153.39;3723568;79;26366;-67
2020/12/18 02:14:13;;;;;;;27.17;14.17;;;;;;;2.58;100.00;99146.94;3712513;77;26392;-66
2020/12/18 02:19:22;;;;;;;25.37;14.00;;;;;;;2.46;100.00;99149.02;3700883;79;26719;-67
2020/12/18 02:24:31;;;;;;;27.97;13.90;;;;;;;2.49;100.00;99149.29;3690808;79;44341;-68
2020/12/18 02:29:38;;;;;;;25.63;13.30;;;;;;;2.52;100.00;99144.64;3714045;79;44541;-67
2020/12/18 02:34:46;;;;;;;30.30;14.27;;;;;;;2.51;100.00;99140.75;3710447;79;26750;-66
2020/12/18 02:39:58;;;;;;;28.07;14.93;;;;;;;2.53;100.00;99146.84;3704304;79;26775;-67
2020/12/18 02:45:22;;;;;;;30.97;14.87;;;;;;;2.57;100.00;99151.01;3694402;80;26330;-67
2020/12/18 02:50:33;;;;;;;28.53;15.03;;;;;;;2.62;100.00;99140.47;3699117;79;26370;-66
2020/12/18 02:55:39;;;;;;;30.13;14.10;;;;;;;2.60;100.00;99139.70;3728608;78;43707;-66
2020/12/18 03:01:03;;;;;;;33.20;15.70;;;;;;;2.60;100.00;99138.86;3735752;79;26331;-69
2020/12/18 03:06:09;;;;;;;30.50;14.30;;;;;;;2.61;100.00;99137.42;3686539;80;44104;-66
2020/12/18 03:11:17;;;;;;;25.33;13.80;;;;;;;2.60;100.00;99142.84;3717458;79;26297;-69
2020/12/18 03:16:24;;;;;;;25.90;13.90;;;;;;;2.56;100.00;99146.17;3698524;80;43329;-66
2020/12/18 03:21:37;;;;;;;26.10;14.10;;;;;;;2.59;100.00;99140.64;3621639;79;26738;-68
2020/12/18 03:26:48;;;;;;;26.50;14.07;;;;;;;2.54;100.00;99144.08;3707450;79;26424;-66
2020/12/18 03:31:58;;;;;;;26.80;13.77;;;;;;;2.49;100.00;99139.98;3688193;80;26397;-67
2020/12/18 03:37:04;;;;;;;29.33;14.70;;;;;;;2.42;100.00;99142.99;3720461;77;43651;-67
2020/12/18 03:42:11;;;;;;;28.20;14.20;;;;;;;2.38;100.00;99144.14;3809120;78;43595;-66
2020/12/18 03:47:17;;;;;;;28.07;14.30;;;;;;;2.40;100.00;99133.41;3730378;77;43556;-69
2020/12/18 03:52:25;;;;;;;27.00;14.60;;;;;;;2.41;100.00;99141.27;3798236;77;26378;-67
2020/12/18 03:57:31;;;;;;;29.83;14.97;;;;;;;2.41;100.00;99142.61;3771462;77;43154;-67
2020/12/18 04:02:38;;;;;;;30.27;15.03;;;;;;;2.41;100.00;99146.59;3837902;77;26390;-67
2020/12/18 04:07:45;;;;;;;30.13;15.07;;;;;;;2.41;100.00;99149.75;3774806;77;43598;-67
2020/12/18 04:12:58;;;;;;;29.90;15.00;;;;;;;2.35;100.00;99154.11;3687041;80;26833;-64
2020/12/18 04:18:05;;;;;;;28.73;13.60;;;;;;;2.35;100.00;99146.98;3770164;77;43736;-64
2020/12/18 04:23:11;;;;;;;28.33;13.97;;;;;;;2.36;100.00;99158.45;3771082;78;42991;-64
2020/12/18 04:28:34;;;;;;;28.17;15.60;;;;;;;2.36;100.00;99161.11;3785514;77;26353;-66
2020/12/18 04:33:40;;;;;;;25.40;13.33;;;;;;;2.37;100.00;99160.17;3718649;77;44345;-64
2020/12/18 04:38:46;;;;;;;27.47;13.93;;;;;;;2.37;100.00;99163.70;3779938;77;43276;-65
2020/12/18 04:43:54;;;;;;;29.67;15.30;;;;;;;2.39;100.00;99163.60;3755380;77;26508;-65
2020/12/18 04:49:01;;;;;;;29.33;15.23;;;;;;;2.39;100.00;99156.49;3705657;77;26254;-65
2020/12/18 04:54:11;;;;;;;28.27;14.23;;;;;;;2.37;100.00;99162.37;3705272;78;26327;-65
2020/12/18 04:59:27;;;;;;;28.83;14.93;;;;;;;2.39;100.00;99164.93;3723698;79;26387;-65
2020/12/18 05:04:36;;;;;;;31.60;14.70;;;;;;;2.42;100.00;99160.28;3744554;77;26846;-65
2020/12/18 05:09:56;;;;;;;30.90;15.20;;;;;;;2.52;100.00;99166.41;3793937;77;26358;-65
2020/12/18 05:15:21;;;;;;;30.20;15.10;;;;;;;2.59;100.00;99174.39;3582737;81;26477;-65
2020/12/18 05:20:45;;;;;;;30.97;15.20;;;;;;;2.65;100.00;99167.35;3686707;79;26400;-65
2020/12/18 05:26:02;;;;;;;34.70;16.60;;;;;;;2.71;100.00;99164.34;3817298;77;27045;-65
2020/12/18 05:31:17;;;;;;;34.40;17.00;;;;;;;2.76;100.00;99170.22;3815486;77;26349;-65
2020/12/18 05:36:28;;;;;;;34.03;16.57;;;;;;;2.78;100.00;99169.66;3766309;77;26840;-65
2020/12/18 05:41:34;;;;;;;33.37;16.40;;;;;;;2.83;100.00;99169.86;3699806;79;43709;-65
2020/12/18 05:46:42;;;;;;;31.90;16.00;;;;;;;2.87;100.00;99166.08;3667357;80;44435;-65
2020/12/18 05:51:50;;;;;;;33.70;15.77;;;;;;;2.91;100.00;99158.27;3740584;78;26282;-65
2020/12/18 05:57:12;;;;;;;31.83;16.77;;;;;;;3.04;100.00;99160.55;3731085;79;26476;-65
2020/12/18 06:02:20;;;;;;;34.73;17.37;;;;;;;3.09;100.00;99153.60;3778465;77;26357;-65
2020/12/18 06:07:39;;;;;;;33.13;17.33;;;;;;;3.09;100.00;99154.94;3753215;77;27044;-65
2020/12/18 06:13:05;;;;;;;33.37;16.23;;;;;;;3.18;100.00;99160.17;3757681;77;26383;-64
2020/12/18 06:18:32;;;;;;;33.70;16.77;;;;;;;3.20;100.00;99168.44;3733229;77;26425;-64
2020/12/18 06:23:39;;;;;;;31.33;15.57;;;;;;;3.16;100.00;99168.73;3811764;77;43336;-64
2020/12/18 06:29:07;;;;;;;28.33;15.93;;;;;;;3.07;100.00;99160.37;3789182;77;26694;-65
2020/12/18 06:34:25;;;;;;;34.07;16.97;;;;;;;3.12;100.00;99165.89;3770423;77;26780;-64
2020/12/18 06:39:35;;;;;;;30.83;15.47;;;;;;;3.20;100.00;99164.44;3715236;77;26977;-65
2020/12/18 06:44:44;;;;;;;30.20;15.30;;;;;;;3.22;100.00;99179.01;3772299;77;26283;-64
2020/12/18 06:50:17;;;;;;;32.10;15.70;;;;;;;3.28;100.00;99185.27;3773839;77;26370;-64
2020/12/18 06:55:38;;;;;;;28.67;15.23;;;;;;;3.30;100.00;99183.38;3733015;78;26469;-65
2020/12/18 07:01:02;;;;;;;32.13;15.87;;;;;;;3.39;100.00;99189.94;3784415;77;26299;-65
2020/12/18 07:06:11;;;;;;;31.90;16.43;;;;;;;3.43;100.00;99190.59;3785109;77;44054;-66
2020/12/18 07:11:18;;;;;;;27.00;15.87;;;;;;;3.41;100.00;99192.49;3798530;77;44044;-68
2020/12/18 07:16:27;;;;;;;30.23;15.67;;;;;;;3.42;100.00;99187.55;3795998;76;27020;-64
2020/12/18 07:21:33;;;;;;;29.87;14.57;;;;;;;3.41;100.00;99180.50;3787849;77;44064;-65
2020/12/18 07:26:38;;;;;;;25.97;14.40;;;;;;;3.43;100.00;99183.44;3730054;78;43284;-68
2020/12/18 07:31:44;;;;;;;28.13;14.30;;;;;;;3.37;100.00;99192.67;3837670;77;43029;-66
2020/12/18 07:36:50;;;;;;;25.27;14.13;;;;;;;3.40;100.00;99192.98;3740436;77;44088;-65
2020/12/18 07:42:03;;;;;;;27.17;14.47;;;;;;;3.47;100.00;99187.63;3822982;77;43147;-70
2020/12/18 07:47:09;;;;;;;25.70;14.13;;;;;;;3.51;100.00;99190.95;3776838;77;44417;-65
2020/12/18 07:52:16;;;;;;;27.90;15.73;;;;;;;3.52;100.00;99193.54;3688243;77;44142;-68
2020/12/18 07:57:22;;;;;;;30.80;17.90;;;;;;;3.58;100.00;99199.41;3737114;77;43098;-65
2020/12/18 08:02:29;;;;;;;34.87;18.17;;;;;;;3.67;100.00;99192.16;3833155;77;43690;-65
2020/12/18 08:07:34;;;;;;;29.47;16.30;;;;;;;3.80;100.00;99193.08;3766314;77;43698;-65
2020/12/18 08:12:42;;;;;;;28.63;15.67;;;;;;;3.88;100.00;99187.75;3696843;80;44852;-68
2020/12/18 08:17:47;;;;;;;26.47;14.67;;;;;;;3.99;100.00;99191.91;3765917;77;43278;-67
2020/12/18 08:22:57;;;;;;;23.23;12.83;;;;;;;4.06;100.00;99191.87;3789282;77;43307;-65
2020/12/18 08:28:03;;;;;;;22.57;12.50;;;;;;;4.19;100.00;99191.91;3759093;77;44050;-65
2020/12/18 08:33:11;;;;;;;22.00;12.20;;;;;;;4.24;100.00;99188.47;3703354;78;43996;-65
2020/12/18 08:38:17;;;;;;;18.90;11.53;;;;;;;4.31;100.00;99189.75;3791737;77;43687;-67
2020/12/18 08:43:23;;;;;;;20.70;11.70;;;;;;;4.35;100.00;99194.89;3768100;77;44399;-64
2020/12/18 08:48:30;;;;;;;20.00;11.73;;;;;;;4.39;100.00;99187.06;3744405;77;44750;-66
2020/12/18 08:53:37;;;;;;;21.63;14.13;;;;;;;4.37;100.00;99189.82;3760192;78;43309;-66
2020/12/18 08:58:43;;;;;;;24.30;14.00;;;;;;;4.41;100.00;99195.83;3782267;77;44014;-67
2020/12/18 09:03:49;;;;;;;24.10;13.90;;;;;;;4.39;100.00;99192.41;3709364;78;44088;-66
2020/12/18 09:09:06;;;;;;;20.47;12.53;;;;;;;4.42;100.00;99186.37;3810330;77;43467;-67
2020/12/18 09:14:27;;;;;;;22.23;14.03;;;;;;;4.43;100.00;99195.22;3832050;77;44216;-66
2020/12/18 09:19:33;;;;;;;25.67;15.10;;;;;;;4.51;100.00;99194.25;3809641;77;43336;-66
2020/12/18 09:24:39;;;;;;;24.53;14.73;;;;;;;4.53;100.00;99193.64;3833070;77;43704;-67
2020/12/18 09:29:46;;;;;;;21.07;12.80;;;;;;;4.57;100.00;99196.48;3821895;77;43761;-67
2020/12/18 09:34:53;;;;;;;21.33;12.07;;;;;;;4.57;100.00;99196.48;3756879;78;43275;-67
2020/12/18 09:39:59;;;;;;;21.60;12.30;;;;;;;4.62;100.00;99186.83;3795567;77;44108;-67
2020/12/18 09:45:07;;;;;;;18.17;11.47;;;;;;;4.65;100.00;99191.09;3789525;78;43274;-66
2020/12/18 09:50:13;;;;;;;18.77;11.10;;;;;;;4.69;100.00;99188.61;3629304;80;44050;-66
2020/12/18 09:55:22;;;;;;;19.23;11.87;;;;;;;4.75;100.00;99182.86;3690428;80;43575;-67
2020/12/18 10:00:30;;;;;;;18.47;11.27;;;;;;;4.81;100.00;99185.09;3596560;80;43479;-67
2020/12/18 10:05:36;;;;;;;17.83;10.53;;;;;;;4.94;100.00;99182.41;3763298;77;43404;-65
2020/12/18 10:10:42;;;;;;;18.00;10.67;;;;;;;5.01;100.00;99182.38;3691639;79;44062;-66
2020/12/18 10:15:48;;;;;;;17.03;10.30;;;;;;;5.18;100.00;99181.66;3756298;77;43373;-65
2020/12/18 10:20:54;;;;;;;15.83;10.00;;;;;;;5.29;100.00;99182.25;3638628;80;43719;-65
2020/12/18 10:26:00;;;;;;;17.17;9.90;;;;;;;5.44;100.00;99174.95;3759077;77;43649;-64
2020/12/18 10:31:06;;;;;;;13.17;9.13;;;;;;;5.52;100.00;99174.78;3801747;78;43469;-66
2020/12/18 10:36:13;;;;;;;16.70;10.00;;;;;;;5.67;100.00;99174.15;3757470;78;44052;-67
2020/12/18 10:41:20;;;;;;;16.63;9.27;;;;;;;5.76;100.00;99167.78;3774245;77;43987;-68
2020/12/18 10:46:25;;;;;;;14.07;9.17;;;;;;;5.85;100.00;99157.74;3805928;78;44047;-67
2020/12/18 10:51:31;;;;;;;15.77;9.80;;;;;;;6.02;100.00;99149.84;3814209;77;42938;-67
2020/12/18 10:56:44;;;;;;;15.17;10.27;;;;;;;6.30;100.00;99149.08;3793208;77;42740;-67
2020/12/18 11:01:54;;;;;;;15.80;9.00;;;;;;;6.39;100.00;99136.36;3814967;77;43969;-67
2020/12/18 11:06:59;;;;;;;12.40;7.93;;;;;;;6.54;100.00;99134.80;3772863;78;43016;-66
2020/12/18 11:12:05;;;;;;;10.97;6.77;;;;;;;6.66;100.00;99133.85;3842127;77;44694;-66
2020/12/18 11:17:11;;;;;;;10.63;6.60;;;;;;;6.85;100.00;99132.44;3795013;77;43427;-67
2020/12/18 11:22:17;;;;;;;10.37;6.60;;;;;;;6.94;100.00;99133.89;3810653;77;44453;-67
2020/12/18 11:27:23;;;;;;;9.43;5.93;;;;;;;7.09;100.00;99129.17;3782022;77;43902;-67
2020/12/18 11:32:29;;;;;;;9.73;6.33;;;;;;;7.22;100.00;99118.82;3775888;78;43450;-67
2020/12/18 11:37:34;;;;;;;9.57;6.37;;;;;;;7.34;100.00;99117.84;3777355;77;44001;-67
2020/12/18 11:42:40;;;;;;;10.80;6.93;;;;;;;7.44;100.00;99117.09;3679011;79;42941;-67
2020/12/18 11:47:46;;;;;;;11.17;6.53;;;;;;;7.54;100.00;99100.11;3711644;79;43411;-67
2020/12/18 11:52:51;;;;;;;8.87;5.73;;;;;;;7.58;100.00;99099.39;3745526;79;43345;-67
2020/12/18 11:57:57;;;;;;;8.93;6.13;;;;;;;7.65;100.00;99093.87;3719993;79;43504;-67
2020/12/18 12:03:03;;;;;;;7.97;5.67;;;;;;;7.74;100.00;99080.68;3759611;79;44023;-67
2020/12/18 12:08:09;;;;;;;9.90;6.53;;;;;;;7.77;100.00;99085.80;3704253;79;43721;-67
2020/12/18 12:13:15;;;;;;;14.20;8.17;;;;;;;7.84;100.00;99086.52;3721083;79;43336;-67
2020/12/18 12:18:21;;;;;;;11.67;6.50;;;;;;;7.82;100.00;99070.19;3739036;79;43422;-66
2020/12/18 12:23:27;;;;;;;9.60;6.27;;;;;;;7.92;100.00;99068.44;3735603;79;44146;-66
2020/12/18 12:28:33;;;;;;;11.60;6.83;;;;;;;7.98;100.00;99066.56;3712027;79;43436;-67
2020/12/18 12:33:39;;;;;;;8.77;6.00;;;;;;;8.05;100.00;99063.38;3720864;79;43685;-67
2020/12/18 12:38:45;;;;;;;9.30;5.80;;;;;;;8.02;100.00;99059.97;3692618;79;43690;-67
2020/12/18 12:43:51;;;;;;;6.30;4.60;;;;;;;8.14;100.00;99055.38;3700139;79;43726;-67
2020/12/18 12:48:57;;;;;;;5.63;4.10;;;;;;;8.16;100.00;99051.25;3731813;78;43724;-67
2020/12/18 12:54:03;;;;;;;8.73;4.93;;;;;;;8.17;100.00;99046.25;3734907;78;43461;-67
2020/12/18 12:59:09;;;;;;;7.33;4.87;;;;;;;8.37;100.00;99055.76;3696719;78;43486;-67
2020/12/18 13:04:15;;;;;;;8.97;5.43;;;;;;;8.46;100.00;99053.62;3703740;78;43722;-67
2020/12/18 13:09:21;;;;;;;9.97;6.27;;;;;;;8.52;100.00;99049.11;3700000;79;43694;-66
2020/12/18 13:14:26;;;;;;;5.70;4.13;;;;;;;8.75;100.00;99051.13;3644679;81;43685;-66
2020/12/18 13:19:32;;;;;;;5.53;4.10;;;;;;;8.64;100.00;99053.39;3737813;78;42843;-66
2020/12/18 13:24:39;;;;;;;5.37;4.07;;;;;;;8.93;100.00;99052.69;3756339;78;43669;-66
2020/12/18 13:29:45;;;;;;;5.07;3.63;;;;;;;9.00;100.00;99050.79;3774092;78;43471;-66
2020/12/18 13:34:51;;;;;;;4.57;3.17;;;;;;;8.97;100.00;99052.42;3746046;78;43336;-68
2020/12/18 13:39:56;;;;;;;4.00;3.53;;;;;;;9.20;100.00;99053.92;3780335;78;43673;-66
2020/12/18 13:45:02;;;;;;;4.93;3.00;;;;;;;9.34;100.00;99060.74;3768117;77;43415;-66
2020/12/18 13:50:09;;;;;;;5.93;3.23;;;;;;;9.43;100.00;99061.77;3721039;79;69419;-66
2020/12/18 13:55:15;;;;;;;4.27;3.27;;;;;;;9.55;100.00;99063.34;3696404;79;43707;-66
2020/12/18 14:00:21;;;;;;;4.30;3.05;;;;;;;9.48;100.00;99061.34;3711361;79;44039;-66
2020/12/18 14:05:27;;;;;;;4.87;3.33;;;;;;;9.48;100.00;99064.88;3713719;79;44095;-66
2020/12/18 14:10:33;;;;;;;5.80;3.70;;;;;;;9.47;100.00;99055.09;3688991;79;44656;-66
2020/12/18 14:15:39;;;;;;;3.83;2.97;;;;;;;9.66;100.00;99065.05;3692645;80;43258;-66
2020/12/18 14:20:45;;;;;;;4.62;3.00;;;;;;;9.68;100.00;99055.00;3721615;79;44056;-66
2020/12/18 14:25:51;;;;;;;3.80;3.00;;;;;;;9.66;100.00;99053.45;3709754;79;73366;-67
2020/12/18 14:30:57;;;;;;;8.80;3.93;;;;;;;9.64;100.00;99052.22;3735749;79;43099;-67
2020/12/18 14:36:02;;;;;;;3.27;2.58;;;;;;;9.65;100.00;99047.70;3681226;79;43149;-67
2020/12/18 14:41:08;;;;;;;3.63;2.60;;;;;;;9.46;100.00;99039.98;3724124;79;44027;-67
2020/12/18 14:46:15;;;;;;;3.33;2.20;;;;;;;9.16;100.00;99044.42;3658514;79;43363;-66
2020/12/18 14:51:21;;;;;;;3.57;2.40;;;;;;;8.98;100.00;99047.41;3747478;79;43329;-66
2020/12/18 14:56:26;;;;;;;2.95;2.30;;;;;;;8.64;100.00;99037.78;3706960;79;43321;-65
2020/12/18 15:01:32;;;;;;;4.53;2.60;;;;;;;8.38;100.00;99028.77;3692907;79;43138;-66
2020/12/18 15:06:38;;;;;;;2.83;2.40;;;;;;;8.21;100.00;99030.22;3687628;80;43723;-66
2020/12/18 15:11:44;;;;;;;4.07;3.23;;;;;;;8.06;100.00;99037.75;3744347;79;43706;-66
2020/12/18 15:16:51;;;;;;;3.40;2.80;;;;;;;7.92;100.00;99036.72;3717900;79;43988;-66
2020/12/18 15:21:56;;;;;;;5.60;3.87;;;;;;;7.80;100.00;99028.72;3718014;79;43426;-66
2020/12/18 15:27:02;;;;;;;4.13;3.07;;;;;;;7.48;100.00;99027.36;3714796;79;43462;-66
2020/12/18 15:32:10;;;;;;;3.90;3.10;;;;;;;7.38;100.00;99026.79;3694576;79;44769;-64
2020/12/18 15:37:18;;;;;;;5.90;3.67;;;;;;;7.30;100.00;99025.70;3687127;79;43681;-67
2020/12/18 15:42:23;;;;;;;6.00;3.33;;;;;;;7.13;100.00;99025.27;3713706;78;44050;-67
2020/12/18 15:47:31;;;;;;;5.60;3.30;;;;;;;6.97;100.00;99028.81;3676800;79;43721;-65
2020/12/18 15:52:37;;;;;;;4.57;3.40;;;;;;;6.70;100.00;99028.22;3749732;78;43445;-66
2020/12/18 15:57:44;;;;;;;3.50;3.00;;;;;;;6.49;100.00;99025.41;3615620;80;44121;-65
2020/12/18 16:02:51;;;;;;;4.77;3.40;;;;;;;6.23;100.00;99028.31;3768300;78;44062;-65
2020/12/18 16:07:57;;;;;;;5.47;3.87;;;;;;;6.08;100.00;99027.64;3639779;80;44389;-65
2020/12/18 16:13:03;;;;;;;5.87;4.20;;;;;;;5.63;100.00;99022.98;3723800;78;43338;-65
2020/12/18 16:18:09;;;;;;;6.07;4.30;;;;;;;5.52;100.00;99022.44;3744444;78;44065;-66
2020/12/18 16:23:16;;;;;;;6.00;4.20;;;;;;;5.50;100.00;99031.05;3672502;78;43413;-65
2020/12/18 16:28:21;;;;;;;4.73;3.77;;;;;;;5.47;100.00;99021.91;3643453;80;43333;-65
2020/12/18 16:33:27;;;;;;;5.80;4.20;;;;;;;5.49;100.00;99029.34;3704394;78;44390;-65
2020/12/18 16:38:34;;;;;;;5.53;4.27;;;;;;;5.49;100.00;99023.16;3698162;79;43405;-65
2020/12/18 16:43:40;;;;;;;4.83;3.53;;;;;;;5.45;100.00;99016.32;3726332;77;44046;-65
2020/12/18 16:48:47;;;;;;;5.43;3.30;;;;;;;5.39;100.00;99022.51;3684696;79;44129;-65
2020/12/18 16:53:53;;;;;;;4.57;3.77;;;;;;;5.34;100.00;99011.79;3721003;79;43331;-65
2020/12/18 16:59:00;;;;;;;7.00;4.97;;;;;;;5.34;100.00;99002.44;3696469;79;44013;-65
2020/12/18 17:04:06;;;;;;;12.60;9.93;;;;;;;5.28;100.00;98996.19;3712173;79;44100;-65
2020/12/18 17:09:14;;;;;;;5.97;4.87;;;;;;;5.19;100.00;99000.39;3700631;79;44636;-65
2020/12/18 17:14:19;;;;;;;3.87;3.43;;;;;;;5.16;100.00;98987.28;3721575;79;43696;-66
2020/12/18 17:19:25;;;;;;;5.87;3.83;;;;;;;5.13;100.00;98991.01;3724264;79;43456;-66
2020/12/18 17:24:31;;;;;;;6.50;3.93;;;;;;;5.09;100.00;98986.87;3704836;79;43410;-66
2020/12/18 17:29:37;;;;;;;6.60;3.73;;;;;;;5.03;100.00;98976.16;3725629;79;44151;-65
2020/12/18 17:34:43;;;;;;;7.03;4.53;;;;;;;4.90;100.00;98981.52;3705101;79;44045;-65
2020/12/18 17:39:48;;;;;;;6.93;4.83;;;;;;;4.55;100.00;98972.06;3684879;79;42824;-65
2020/12/18 17:44:54;;;;;;;8.50;4.90;;;;;;;4.44;100.00;98970.14;3728025;79;43483;-67
2020/12/18 17:50:00;;;;;;;6.80;4.60;;;;;;;4.24;100.00;98967.55;3690300;79;43533;-67
2020/12/18 17:55:06;;;;;;;8.20;4.83;;;;;;;4.06;100.00;98980.37;3664297;79;44070;-69
2020/12/18 18:00:12;;;;;;;5.90;4.07;;;;;;;3.99;100.00;98976.78;3657114;80;44132;-69
2020/12/18 18:05:18;;;;;;;7.53;4.77;;;;;;;3.92;100.00;98979.51;3557200;82;43095;-71
2020/12/18 18:10:24;;;;;;;6.93;4.67;;;;;;;3.83;100.00;98970.78;3723115;78;44162;-69
2020/12/18 18:15:30;;;;;;;9.30;4.80;;;;;;;3.75;100.00;98979.79;3757598;79;43695;-70
2020/12/18 18:20:35;;;;;;;44.07;23.63;;;;;;;3.65;100.00;98986.20;3728716;79;44497;-69
2020/12/18 18:25:42;;;;;;;10.77;6.87;;;;;;;3.59;100.00;98990.63;3685068;80;43679;-65
2020/12/18 18:30:47;;;;;;;9.63;7.30;;;;;;;3.59;100.00;98987.48;3636775;80;43295;-69
2020/12/18 18:35:53;;;;;;;12.57;7.77;;;;;;;3.61;100.00;98983.40;3702198;79;43662;-66
2020/12/18 18:41:01;;;;;;;9.53;6.47;;;;;;;3.65;100.00;98981.75;3699549;79;44448;-69
2020/12/18 18:46:08;;;;;;;9.63;6.20;;;;;;;3.58;100.00;98984.47;3745765;77;43221;-66
2020/12/18 18:51:14;;;;;;;10.63;7.17;;;;;;;3.57;100.00;98982.76;3799405;77;43235;-66
2020/12/18 18:56:20;;;;;;;9.10;6.17;;;;;;;3.50;100.00;98984.97;3762558;77;43324;-66
2020/12/18 19:01:26;;;;;;;11.97;7.90;;;;;;;3.40;100.00;98985.22;3777858;77;44083;-66
2020/12/18 19:06:32;;;;;;;11.97;7.83;;;;;;;3.37;100.00;98971.59;3768364;77;43264;-66
2020/12/18 19:11:38;;;;;;;13.47;8.77;;;;;;;3.35;100.00;98976.17;3724012;79;44114;-66
2020/12/18 19:16:44;;;;;;;14.20;8.87;;;;;;;3.32;100.00;98967.53;3704076;79;44448;-66
2020/12/18 19:21:52;;;;;;;14.20;9.30;;;;;;;3.30;100.00;98961.45;3687728;79;44141;-66
2020/12/18 19:26:58;;;;;;;15.90;8.87;;;;;;;3.29;100.00;98959.28;3602652;82;44025;-66
2020/12/18 19:32:06;;;;;;;19.97;13.00;;;;;;;3.35;100.00;98959.34;3690367;79;44450;-66
2020/12/18 19:37:14;;;;;;;23.63;12.63;;;;;;;3.39;100.00;98964.36;3659320;80;44060;-66
2020/12/18 19:42:20;;;;;;;17.30;8.70;;;;;;;3.38;100.00;98958.66;3673695;80;43733;-66
2020/12/18 19:47:26;;;;;;;15.03;8.73;;;;;;;3.43;100.00;98969.00;3699487;80;44067;-66
2020/12/18 19:52:31;;;;;;;16.50;11.23;;;;;;;3.39;100.00;98967.52;3810688;77;44028;-66
2020/12/18 19:57:37;;;;;;;15.03;9.23;;;;;;;3.47;100.00;98965.69;3787369;77;43360;-66
2020/12/18 20:02:43;;;;;;;14.67;9.33;;;;;;;3.45;100.00;98964.44;3775576;77;43675;-66
2020/12/18 20:07:49;;;;;;;15.40;9.50;;;;;;;3.46;100.00;98954.65;3737265;79;44030;-66
2020/12/18 20:12:59;;;;;;;15.63;9.27;;;;;;;3.42;100.00;98959.80;3774966;77;43356;-66
2020/12/18 20:18:09;;;;;;;17.47;9.90;;;;;;;3.43;100.00;98960.17;3778638;77;44168;-66
2020/12/18 20:23:14;;;;;;;20.13;10.37;;;;;;;3.38;100.00;98954.66;3725415;79;44009;-66
2020/12/18 20:28:20;;;;;;;16.83;10.03;;;;;;;3.38;100.00;98963.15;3708268;79;44084;-70
2020/12/18 20:33:25;;;;;;;16.40;9.87;;;;;;;3.35;100.00;98963.34;3695744;79;43606;-70
2020/12/18 20:38:31;;;;;;;20.80;13.37;;;;;;;3.32;100.00;98959.08;3679260;80;43217;-70
2020/12/18 20:43:38;;;;;;;15.33;9.33;;;;;;;3.38;100.00;98946.67;3825982;77;43985;-70
2020/12/18 20:48:46;;;;;;;18.90;12.80;;;;;;;3.34;100.00;98945.66;3714670;77;43229;-70
2020/12/18 20:53:52;;;;;;;15.57;9.00;;;;;;;3.35;100.00;98938.88;3707404;79;43404;-71
2020/12/18 20:58:58;;;;;;;18.17;9.17;;;;;;;3.29;100.00;98941.13;3704553;79;44138;-70
2020/12/18 21:04:04;;;;;;;17.07;9.70;;;;;;;3.32;100.00;98938.23;3680658;79;43159;-70
2020/12/18 21:09:10;;;;;;;15.53;8.60;;;;;;;3.31;100.00;98934.73;3689202;79;42629;-70
2020/12/18 21:14:16;;;;;;;16.00;9.93;;;;;;;3.36;100.00;98931.77;3679028;79;43261;-71
2020/12/18 21:19:22;;;;;;;55.73;38.53;;;;;;;3.32;100.00;98930.25;3694404;79;43944;-70
2020/12/18 21:24:28;;;;;;;17.20;11.20;;;;;;;3.29;100.00;98921.99;3674225;79;43673;-71
2020/12/18 21:29:34;;;;;;;15.80;9.63;;;;;;;3.26;100.00;98930.19;3701217;79;44027;-70
2020/12/18 21:34:40;;;;;;;20.40;14.47;;;;;;;3.23;100.00;98922.42;3686603;79;43732;-70
2020/12/18 21:39:46;;;;;;;14.70;9.20;;;;;;;3.17;100.00;98921.02;3723650;79;43240;-72
2020/12/18 21:44:52;;;;;;;14.30;8.43;;;;;;;3.17;100.00;98920.15;3690504;79;43175;-71
2020/12/18 21:49:58;;;;;;;18.13;10.70;;;;;;;3.12;100.00;98916.95;3711095;78;44144;-71
2020/12/18 21:55:05;;;;;;;14.97;8.60;;;;;;;3.18;100.00;98914.70;3748384;79;43230;-71
2020/12/18 22:00:11;;;;;;;28.50;21.93;;;;;;;3.13;100.00;98915.97;3729943;78;43316;-69
2020/12/18 22:05:16;;;;;;;32.10;23.90;;;;;;;3.05;100.00;98918.67;3672311;79;44072;-69
2020/12/18 22:10:22;;;;;;;16.67;10.80;;;;;;;3.08;100.00;98910.95;3718634;78;43319;-71
2020/12/18 22:15:28;;;;;;;17.73;11.40;;;;;;;3.11;100.00;98908.09;3706925;79;43906;-71
2020/12/18 22:20:34;;;;;;;17.13;10.03;;;;;;;3.10;100.00;98903.73;3726503;78;43241;-69
2020/12/18 22:25:40;;;;;;;16.57;9.30;;;;;;;3.05;100.00;98909.36;3645673;81;43169;-70
2020/12/18 22:30:46;;;;;;;17.03;10.13;;;;;;;3.04;100.00;98910.80;3728416;78;43986;-70
2020/12/18 22:35:52;;;;;;;17.10;9.87;;;;;;;3.14;100.00;98907.91;3714511;78;44445;-70
2020/12/18 22:40:58;;;;;;;16.70;10.53;;;;;;;3.18;100.00;98898.73;3666907;78;44138;-70
2020/12/18 22:46:04;;;;;;;14.90;9.70;;;;;;;3.20;100.00;98904.81;3643598;78;42990;-70
2020/12/18 22:51:12;;;;;;;16.33;9.87;;;;;;;3.22;100.00;98904.73;3689764;79;44005;-70
2020/12/18 22:56:19;;;;;;;18.30;11.30;;;;;;;3.22;100.00;98900.25;3687838;79;44106;-70
2020/12/18 23:01:25;;;;;;;16.93;9.57;;;;;;;3.19;100.00;98899.61;3721581;79;44083;-70
2020/12/18 23:06:34;;;;;;;16.13;9.43;;;;;;;3.19;100.00;98887.63;3677402;79;43575;-70
2020/12/18 23:11:41;;;;;;;16.93;10.97;;;;;;;3.21;100.00;98889.71;3696261;79;43399;-70
2020/12/18 23:16:47;;;;;;;16.37;9.23;;;;;;;3.23;100.00;98881.15;3687477;80;43622;-70
2020/12/18 23:21:53;;;;;;;17.30;9.70;;;;;;;3.22;100.00;98875.44;3722547;79;43293;-70
2020/12/18 23:27:00;;;;;;;15.50;8.97;;;;;;;3.19;100.00;98884.96;3618737;81;44477;-70
2020/12/18 23:32:06;;;;;;;14.90;8.90;;;;;;;3.21;100.00;98881.72;3670218;79;43964;-70
2020/12/18 23:37:12;;;;;;;15.03;8.97;;;;;;;3.26;100.00;98886.73;3677792;80;44205;-70
2020/12/18 23:42:18;;;;;;;15.00;8.80;;;;;;;3.28;100.00;98884.34;3737312;79;43941;-70
2020/12/18 23:47:25;;;;;;;15.47;8.97;;;;;;;3.27;100.00;98878.63;3696471;79;43232;-70